createdAt,value
2023-04-02T00:02:26.359Z,52.35
2023-04-02T00:05:30.496Z,52.65
2023-04-02T00:07:58.982Z,53.20
2023-04-02T00:10:32.887Z,53.12
2023-04-02T00:13:01.966Z,52.67
2023-04-02T00:15:29.043Z,51.84
2023-04-02T00:17:56.482Z,52.30
2023-04-02T00:20:24.505Z,52.23
2023-04-02T00:22:51.597Z,51.04
2023-04-02T00:25:19.386Z,51.19
2023-04-02T00:27:48.129Z,50.68
2023-04-02T00:30:15.723Z,51.51
2023-04-02T00:32:44.031Z,51.89
2023-04-02T00:35:12.604Z,51.78
2023-04-02T00:37:42.097Z,51.33
2023-04-02T00:40:17.371Z,51.67
2023-04-02T00:42:44.906Z,51.53
2023-04-02T00:45:19.782Z,51.82
2023-04-02T00:47:46.744Z,51.37
2023-04-02T00:50:22.304Z,51.81
2023-04-02T00:52:51.125Z,52.25
2023-04-02T00:55:22.918Z,52.46
2023-04-02T00:57:50.415Z,52.58
2023-04-02T01:00:23.109Z,52.70
2023-04-02T01:03:29.331Z,51.99
2023-04-02T01:06:01.711Z,51.84
2023-04-02T01:08:38.140Z,51.19
2023-04-02T01:11:14.953Z,51.32
2023-04-02T01:13:45.818Z,51.86
2023-04-02T01:16:20.040Z,51.26
2023-04-02T01:18:53.321Z,51.36
2023-04-02T01:21:42.606Z,51.08
2023-04-02T01:24:11.561Z,51.56
2023-04-02T01:26:56.427Z,50.84
2023-04-02T01:29:26.309Z,51.74
2023-04-02T01:31:55.641Z,51.11
2023-04-02T01:34:25.992Z,51.12
2023-04-02T01:37:07.144Z,51.42
2023-04-02T01:39:43.846Z,51.24
2023-04-02T01:42:16.100Z,51.72
2023-04-02T01:44:47.630Z,51.37
2023-04-02T01:47:17.173Z,50.94
2023-04-02T01:49:44.913Z,50.99
2023-04-02T01:52:14.796Z,50.95
2023-04-02T01:54:42.383Z,50.93
2023-04-02T01:57:09.654Z,51.60
2023-04-02T01:59:36.767Z,51.27
2023-04-02T02:02:09.736Z,51.70
2023-04-02T02:04:39.791Z,51.58
2023-04-02T02:07:14.483Z,51.33
2023-04-02T02:09:43.906Z,51.63
2023-04-02T02:12:13.803Z,51.75
2023-04-02T02:14:46.265Z,51.40
2023-04-02T02:17:16.011Z,51.17
2023-04-02T02:19:45.008Z,51.51
2023-04-02T02:22:17.493Z,51.25
2023-04-02T02:24:44.614Z,51.76
2023-04-02T02:27:41.814Z,52.65
2023-04-02T02:30:14.643Z,52.64
2023-04-02T02:32:48.303Z,51.60
2023-04-02T02:35:19.553Z,50.78
2023-04-02T02:37:52.420Z,51.08
2023-04-02T02:40:24.576Z,50.97
2023-04-02T02:42:53.480Z,51.00
2023-04-02T02:45:24.969Z,50.85
2023-04-02T02:47:54.756Z,50.48
2023-04-02T02:50:23.726Z,51.27
2023-04-02T02:52:54.452Z,51.24
2023-04-02T02:55:23.258Z,50.76
2023-04-02T02:58:00.182Z,50.93
2023-04-02T03:00:32.058Z,50.57
2023-04-02T03:03:05.020Z,50.76
2023-04-02T03:05:32.636Z,50.45
2023-04-02T03:08:09.553Z,50.03
2023-04-02T03:10:41.366Z,50.45
2023-04-02T03:13:19.908Z,50.04
2023-04-02T03:15:51.980Z,50.44
2023-04-02T03:18:27.222Z,50.38
2023-04-02T03:20:57.441Z,50.51
2023-04-02T03:23:28.701Z,50.99
2023-04-02T03:25:59.973Z,50.82
2023-04-02T03:28:30.139Z,51.80
2023-04-02T03:31:00.564Z,51.68
2023-04-02T03:33:32.903Z,51.61
2023-04-02T03:36:03.685Z,51.72
2023-04-02T03:38:33.094Z,56.50
2023-04-02T03:41:04.584Z,52.57
2023-04-02T03:43:36.990Z,52.78
2023-04-02T03:46:15.037Z,53.10
2023-04-02T03:48:46.113Z,52.54
2023-04-02T03:51:18.675Z,52.43
2023-04-02T03:53:46.748Z,53.96
2023-04-02T03:56:22.936Z,53.95
2023-04-02T03:58:55.214Z,54.82
2023-04-02T04:01:27.456Z,53.91
2023-04-02T04:04:01.564Z,53.45
2023-04-02T04:06:31.205Z,53.46
2023-04-02T04:09:01.381Z,52.33
2023-04-02T04:11:31.915Z,52.89
2023-04-02T04:14:01.888Z,53.05
2023-04-02T04:16:32.827Z,53.16
2023-04-02T04:19:04.105Z,51.85
2023-04-02T04:21:39.761Z,52.09
2023-04-02T04:24:20.433Z,51.75
2023-04-02T04:26:53.510Z,52.14
2023-04-02T04:29:32.578Z,52.29
2023-04-02T04:32:13.163Z,53.79
2023-04-02T04:34:47.052Z,55.18
2023-04-02T04:37:25.218Z,56.76
2023-04-02T04:39:57.329Z,58.19
2023-04-02T04:42:26.666Z,59.62
2023-04-02T04:44:59.938Z,60.89
2023-04-02T04:47:31.148Z,61.11
2023-04-02T04:50:04.585Z,61.60
2023-04-02T04:52:37.633Z,61.31
2023-04-02T04:55:40.449Z,61.90
2023-04-02T04:58:15.911Z,62.07
2023-04-02T05:00:51.570Z,63.22
2023-04-02T05:03:28.438Z,63.85
2023-04-02T05:06:01.068Z,64.29
2023-04-02T05:08:33.819Z,65.14
2023-04-02T05:11:02.334Z,64.90
2023-04-02T05:13:33.048Z,65.36
2023-04-02T05:16:07.896Z,64.90
2023-04-02T05:18:39.243Z,65.28
2023-04-02T05:21:18.395Z,65.34
2023-04-02T05:23:48.359Z,65.13
2023-04-02T05:26:18.264Z,64.70
2023-04-02T05:28:48.991Z,65.56
2023-04-02T05:31:20.085Z,65.54
2023-04-02T05:33:49.363Z,64.55
2023-04-02T05:36:21.749Z,63.91
2023-04-02T05:38:52.744Z,64.27
2023-04-02T05:41:27.701Z,63.54
2023-04-02T05:44:02.588Z,64.39
2023-04-02T05:46:34.032Z,63.72
2023-04-02T05:49:04.795Z,62.90
2023-04-02T05:51:39.785Z,63.17
2023-04-02T05:54:16.837Z,63.57
2023-04-02T05:56:46.628Z,61.17
2023-04-02T05:59:17.265Z,61.18
2023-04-02T06:01:47.428Z,62.54
2023-04-02T06:04:23.022Z,61.92
2023-04-02T06:06:57.492Z,61.17
2023-04-02T06:09:31.237Z,60.66
2023-04-02T06:12:04.988Z,60.30
2023-04-02T06:14:33.061Z,59.90
2023-04-02T06:17:00.534Z,60.08
2023-04-02T06:19:32.295Z,59.42
2023-04-02T06:22:09.604Z,59.47
2023-04-02T06:24:37.739Z,58.41
2023-04-02T06:27:06.576Z,58.80
2023-04-02T06:29:39.735Z,58.57
2023-04-02T06:32:11.557Z,57.94
2023-04-02T06:34:42.553Z,58.56
2023-04-02T06:37:20.289Z,57.74
2023-04-02T06:39:48.677Z,57.11
2023-04-02T06:42:20.547Z,56.69
2023-04-02T06:45:00.107Z,56.63
2023-04-02T06:47:50.589Z,56.27
2023-04-02T06:50:46.251Z,54.89
2023-04-02T06:53:20.854Z,54.58
2023-04-02T06:55:51.173Z,54.44
2023-04-02T06:58:23.038Z,54.34
2023-04-02T07:00:51.816Z,52.86
2023-04-02T07:03:31.039Z,52.41
2023-04-02T07:06:03.433Z,52.13
2023-04-02T07:08:33.291Z,53.28
2023-04-02T07:11:00.813Z,53.56
2023-04-02T07:13:28.682Z,52.19
2023-04-02T07:15:56.697Z,51.96
2023-04-02T07:18:27.319Z,52.13
2023-04-02T07:20:55.114Z,51.74
2023-04-02T07:23:23.252Z,49.81
2023-04-02T07:25:54.662Z,48.06
2023-04-02T07:28:22.916Z,45.79
2023-04-02T07:30:50.822Z,49.19
2023-04-02T07:33:19.362Z,47.61
2023-04-02T07:35:46.593Z,45.40
2023-04-02T07:38:13.615Z,44.13
2023-04-02T07:40:40.595Z,42.82
2023-04-02T07:43:09.326Z,43.33
2023-04-02T07:45:36.689Z,41.92
2023-04-02T07:48:05.832Z,42.64
2023-04-02T07:50:33.232Z,42.05
2023-04-02T07:53:00.355Z,41.69
2023-04-02T07:55:27.303Z,41.08
2023-04-02T07:57:55.791Z,40.68
2023-04-02T08:00:24.943Z,40.88
2023-04-02T08:02:52.258Z,39.74
2023-04-02T08:05:19.713Z,39.27
2023-04-02T08:07:52.990Z,38.29
2023-04-02T08:10:19.982Z,37.41
2023-04-02T08:12:47.026Z,37.43
2023-04-02T08:15:15.723Z,37.83
2023-04-02T08:17:44.404Z,37.72
2023-04-02T08:20:15.416Z,36.51
2023-04-02T08:22:42.470Z,37.16
2023-04-02T08:25:10.038Z,37.42
2023-04-02T08:27:37.250Z,36.59
2023-04-02T08:30:06.446Z,35.85
2023-04-02T08:32:33.740Z,37.52
2023-04-02T08:35:02.803Z,36.74
2023-04-02T08:37:29.825Z,36.29
2023-04-02T08:39:56.894Z,34.40
2023-04-02T08:42:30.552Z,34.39
2023-04-02T08:45:21.212Z,35.28
2023-04-02T08:47:53.495Z,35.12
2023-04-02T08:50:29.148Z,33.04
2023-04-02T08:52:57.215Z,32.30
2023-04-02T08:55:29.907Z,32.57
2023-04-02T08:58:04.009Z,32.57
2023-04-02T09:00:37.449Z,31.06
2023-04-02T09:03:09.071Z,31.38
2023-04-02T09:05:39.962Z,32.67
2023-04-02T09:08:16.831Z,31.32
2023-04-02T09:10:49.312Z,32.70
2023-04-02T09:13:19.870Z,30.59
2023-04-02T09:15:47.400Z,30.87
2023-04-02T09:18:16.687Z,30.42
2023-04-02T09:20:45.686Z,30.37
2023-04-02T09:23:17.637Z,30.49
2023-04-02T09:25:57.425Z,30.70
2023-04-02T09:28:30.542Z,30.47
2023-04-02T09:31:02.162Z,28.89
2023-04-02T09:33:43.002Z,30.59
2023-04-02T09:36:26.934Z,28.78
2023-04-02T09:38:59.242Z,28.80
2023-04-02T09:41:29.212Z,29.23
2023-04-02T09:44:21.281Z,29.30
2023-04-02T09:46:59.862Z,27.65
2023-04-02T09:49:29.316Z,29.59
2023-04-02T09:52:19.391Z,27.59
2023-04-02T09:54:47.080Z,28.77
2023-04-02T09:57:24.888Z,28.25
2023-04-02T10:00:25.227Z,29.47
2023-04-02T10:03:04.272Z,27.83
2023-04-02T10:05:40.544Z,28.63
2023-04-02T10:08:19.041Z,29.32
2023-04-02T10:10:48.719Z,29.14
2023-04-02T10:13:19.967Z,29.99
2023-04-02T10:15:49.138Z,29.94
2023-04-02T10:18:21.401Z,29.17
2023-04-02T10:20:51.680Z,30.37
2023-04-02T10:23:20.294Z,29.96
2023-04-02T10:25:52.024Z,28.70
2023-04-02T10:28:25.948Z,28.20
2023-04-02T10:30:57.355Z,28.32
2023-04-02T10:33:28.817Z,28.76
2023-04-02T10:36:01.898Z,29.56
2023-04-02T10:38:38.869Z,29.34
2023-04-02T10:41:16.326Z,28.13
2023-04-02T10:44:21.958Z,27.01
2023-04-02T10:47:06.590Z,28.31
2023-04-02T10:49:42.032Z,29.51
2023-04-02T10:52:13.660Z,28.82
2023-04-02T10:54:47.022Z,28.83
2023-04-02T10:57:26.691Z,28.70
2023-04-02T10:59:57.604Z,25.66
2023-04-02T11:02:31.989Z,25.73
2023-04-02T11:05:04.006Z,28.24
2023-04-02T11:07:43.714Z,29.36
2023-04-02T11:10:15.606Z,28.79
2023-04-02T11:12:49.939Z,29.08
2023-04-02T11:15:17.022Z,28.96
2023-04-02T11:17:44.450Z,28.96
2023-04-02T11:20:57.420Z,29.11
2023-04-02T11:23:28.746Z,28.90
2023-04-02T11:26:33.100Z,29.70
2023-04-02T11:29:13.604Z,28.25
2023-04-02T11:31:40.809Z,27.72
2023-04-02T11:34:12.939Z,27.68
2023-04-02T11:37:00.528Z,28.50
2023-04-02T11:39:54.093Z,29.10
2023-04-02T11:42:30.497Z,28.14
2023-04-02T11:45:00.416Z,27.78
2023-04-02T11:47:28.001Z,28.42
2023-04-02T11:50:03.487Z,28.49
2023-04-02T11:52:36.876Z,28.58
2023-04-02T11:55:24.440Z,29.58
2023-04-02T11:58:01.822Z,29.33
2023-04-02T12:00:40.132Z,29.04
2023-04-02T12:03:45.493Z,28.70
2023-04-02T12:06:20.651Z,29.00
2023-04-02T12:08:58.054Z,28.54
2023-04-02T12:11:33.531Z,29.03
2023-04-02T12:14:02.911Z,27.82
2023-04-02T12:16:33.709Z,28.32
2023-04-02T12:19:01.602Z,28.45
2023-04-02T12:21:30.607Z,28.62
2023-04-02T12:23:59.136Z,28.60
2023-04-02T12:26:32.463Z,28.17
2023-04-02T12:29:19.079Z,28.13
2023-04-02T12:31:47.978Z,29.23
2023-04-02T12:34:16.676Z,27.61
2023-04-02T12:36:55.196Z,26.89
2023-04-02T12:39:23.227Z,27.85
2023-04-02T12:41:51.490Z,28.09
2023-04-02T12:44:24.337Z,28.00
2023-04-02T12:46:52.385Z,28.06
2023-04-02T12:49:28.840Z,28.78
2023-04-02T12:51:56.692Z,28.73
2023-04-02T12:54:24.099Z,29.42
2023-04-02T12:56:51.495Z,27.10
2023-04-02T12:59:29.310Z,26.87
2023-04-02T13:01:57.495Z,26.05
2023-04-02T13:04:24.514Z,26.31
2023-04-02T13:06:54.980Z,26.56
2023-04-02T13:09:34.782Z,26.25
2023-04-02T13:12:03.060Z,25.61
2023-04-02T13:14:31.479Z,25.20
2023-04-02T13:16:58.545Z,24.51
2023-04-02T13:19:28.554Z,25.72
2023-04-02T13:21:57.142Z,24.79
2023-04-02T13:24:25.683Z,24.16
2023-04-02T13:26:56.486Z,25.04
2023-04-02T13:29:26.428Z,23.95
2023-04-02T13:31:57.352Z,24.88
2023-04-02T13:34:24.703Z,24.45
2023-04-02T13:36:51.998Z,24.81
2023-04-02T13:39:20.607Z,25.15
2023-04-02T13:41:49.251Z,25.14
2023-04-02T13:44:22.871Z,26.37
2023-04-02T13:46:50.550Z,25.77
2023-04-02T13:49:19.467Z,25.75
2023-04-02T13:51:48.037Z,25.35
2023-04-02T13:54:22.421Z,25.96
2023-04-02T13:56:49.524Z,26.50
2023-04-02T13:59:16.705Z,26.15
2023-04-02T14:01:44.977Z,25.61
2023-04-02T14:04:16.374Z,24.92
2023-04-02T14:07:08.445Z,24.58
2023-04-02T14:09:42.417Z,24.23
2023-04-02T14:12:17.267Z,25.07
2023-04-02T14:15:12.550Z,23.99
2023-04-02T14:17:49.851Z,24.91
2023-04-02T14:20:25.976Z,24.58
2023-04-02T14:23:07.176Z,25.23
2023-04-02T14:25:39.137Z,25.18
2023-04-02T14:28:10.670Z,25.78
2023-04-02T14:30:45.492Z,25.32
2023-04-02T14:33:20.976Z,26.47
2023-04-02T14:35:52.470Z,26.62
2023-04-02T14:38:24.989Z,26.71
2023-04-02T14:40:56.159Z,27.14
2023-04-02T14:43:24.942Z,27.18
2023-04-02T14:45:58.256Z,28.06
2023-04-02T14:48:37.785Z,28.65
2023-04-02T14:51:07.538Z,28.39
2023-04-02T14:53:47.444Z,28.33
2023-04-02T14:56:15.834Z,28.84
2023-04-02T14:58:43.906Z,28.81
2023-04-02T15:01:13.979Z,29.17
2023-04-02T15:03:44.697Z,29.29
2023-04-02T15:06:15.856Z,30.14
2023-04-02T15:08:52.367Z,30.30
2023-04-02T15:11:29.635Z,29.78
2023-04-02T15:14:00.457Z,29.67
2023-04-02T15:16:27.729Z,29.53
2023-04-02T15:18:56.794Z,29.73
2023-04-02T15:21:49.833Z,29.90
2023-04-02T15:24:31.077Z,29.81
2023-04-02T15:27:09.324Z,30.69
2023-04-02T15:29:42.100Z,30.02
2023-04-02T15:32:23.865Z,30.76
2023-04-02T15:34:54.710Z,30.67
2023-04-02T15:37:23.992Z,31.07
2023-04-02T15:40:19.858Z,30.48
2023-04-02T15:42:53.366Z,30.76
2023-04-02T15:45:29.048Z,30.98
2023-04-02T15:48:18.469Z,30.99
2023-04-02T15:51:08.557Z,30.35
2023-04-02T15:53:43.536Z,31.25
2023-04-02T15:56:36.110Z,31.94
2023-04-02T15:59:19.930Z,31.67
2023-04-02T16:01:54.468Z,31.42
2023-04-02T16:04:33.272Z,32.45
2023-04-02T16:07:20.482Z,33.84
2023-04-02T16:09:54.407Z,34.38
2023-04-02T16:12:26.192Z,32.69
2023-04-02T16:14:55.956Z,34.12
2023-04-02T16:17:28.460Z,34.83
2023-04-02T16:19:58.399Z,35.15
2023-04-02T16:22:29.085Z,36.08
2023-04-02T16:25:01.071Z,36.10
2023-04-02T16:27:32.540Z,36.58
2023-04-02T16:30:22.565Z,37.00
2023-04-02T16:33:00.043Z,37.65
2023-04-02T16:38:09.437Z,38.11
2023-04-02T16:40:40.688Z,38.21
2023-04-02T16:43:18.319Z,38.62
2023-04-02T16:45:50.992Z,38.83
2023-04-02T16:48:24.280Z,38.66
2023-04-02T16:50:58.162Z,39.05
2023-04-02T16:53:31.822Z,39.15
2023-04-02T16:56:12.034Z,37.91
2023-04-02T16:58:46.882Z,38.78
2023-04-02T17:01:15.798Z,39.41
2023-04-02T17:04:14.228Z,39.33
2023-04-02T17:06:43.419Z,39.61
2023-04-02T17:09:17.695Z,39.69
2023-04-02T17:11:49.176Z,39.89
2023-04-02T17:14:24.068Z,40.32
2023-04-02T17:16:53.296Z,40.61
2023-04-02T17:19:21.609Z,41.34
2023-04-02T17:21:52.363Z,41.20
2023-04-02T17:24:24.432Z,42.20
2023-04-02T17:26:53.915Z,42.20
2023-04-02T17:29:27.764Z,42.01
2023-04-02T17:32:00.006Z,41.71
2023-04-02T17:34:28.363Z,41.96
2023-04-02T17:37:03.328Z,42.74
2023-04-02T17:39:35.986Z,43.08
2023-04-02T17:42:10.472Z,43.87
2023-04-02T17:44:46.683Z,43.74
2023-04-02T17:47:20.007Z,44.65
2023-04-02T17:49:52.380Z,44.87
2023-04-02T17:52:22.287Z,44.29
2023-04-02T17:54:58.161Z,45.76
2023-04-02T17:57:36.029Z,45.54
2023-04-02T18:00:14.625Z,46.18
2023-04-02T18:02:59.932Z,45.46
2023-04-02T18:05:31.446Z,45.27
2023-04-02T18:08:05.319Z,45.72
2023-04-02T18:10:36.988Z,45.82
2023-04-02T18:13:07.828Z,46.01
2023-04-02T18:15:42.562Z,46.64
2023-04-02T18:18:19.413Z,46.45
2023-04-02T18:20:54.044Z,46.39
2023-04-02T18:23:36.432Z,47.07
2023-04-02T18:26:08.252Z,47.03
2023-04-02T18:28:43.490Z,46.80
2023-04-02T18:31:19.709Z,46.95
2023-04-02T18:34:05.435Z,47.27
2023-04-02T18:36:39.358Z,47.50
2023-04-02T18:39:13.617Z,47.37
2023-04-02T18:41:46.470Z,47.12
2023-04-02T18:44:31.565Z,47.05
2023-04-02T18:47:05.515Z,46.79
2023-04-02T18:49:36.928Z,46.74
2023-04-02T18:52:10.041Z,46.69
2023-04-02T18:54:39.669Z,46.83
2023-04-02T18:57:11.881Z,46.53
2023-04-02T18:59:42.921Z,46.60
2023-04-02T19:02:26.336Z,46.02
2023-04-02T19:05:00.438Z,46.24
2023-04-02T19:07:29.938Z,46.39
2023-04-02T19:10:00.232Z,46.78
2023-04-02T19:12:32.396Z,46.28
2023-04-02T19:14:59.730Z,47.12
2023-04-02T19:17:31.080Z,46.35
2023-04-02T19:20:07.365Z,46.49
2023-04-02T19:22:41.794Z,46.71
2023-04-02T19:25:26.488Z,46.64
2023-04-02T19:28:02.071Z,46.19
2023-04-02T19:30:50.658Z,46.87
2023-04-02T19:33:41.242Z,46.94
2023-04-02T19:36:26.633Z,47.33
2023-04-02T19:39:01.155Z,48.06
2023-04-02T19:41:32.155Z,48.91
2023-04-02T19:43:59.375Z,48.74
2023-04-02T19:46:26.923Z,49.13
2023-04-02T19:49:00.310Z,49.72
2023-04-02T19:51:27.345Z,50.10
2023-04-02T19:53:54.576Z,49.82
2023-04-02T19:56:22.890Z,50.23
2023-04-02T19:58:50.102Z,50.53
2023-04-02T20:01:17.433Z,50.69
2023-04-02T20:03:44.685Z,51.17
2023-04-02T20:06:14.499Z,51.77
2023-04-02T20:08:41.728Z,52.45
2023-04-02T20:11:08.898Z,52.46
2023-04-02T20:13:36.123Z,52.55
2023-04-02T20:16:04.750Z,52.83
2023-04-02T20:18:32.183Z,52.96
2023-04-02T20:20:59.460Z,54.16
2023-04-02T20:23:27.830Z,54.36
2023-04-02T20:25:57.217Z,54.93
2023-04-02T20:28:25.614Z,55.81
2023-04-02T20:30:53.596Z,55.84
2023-04-02T20:33:22.641Z,56.53
2023-04-02T20:35:50.772Z,56.70
2023-04-02T20:38:18.603Z,57.42
2023-04-02T20:40:52.853Z,56.98
2023-04-02T20:43:20.120Z,57.29
2023-04-02T20:45:53.993Z,57.65
2023-04-02T20:48:21.016Z,57.74
2023-04-02T20:50:49.179Z,57.77
2023-04-02T20:53:16.534Z,61.46
2023-04-02T20:55:43.865Z,57.66
2023-04-02T20:58:12.713Z,57.37
2023-04-02T21:00:39.715Z,57.03
2023-04-02T21:03:06.886Z,56.90
2023-04-02T21:05:34.111Z,56.97
2023-04-02T21:08:01.148Z,57.21
2023-04-02T21:10:28.130Z,57.99
2023-04-02T21:12:55.566Z,57.36
2023-04-02T21:15:27.216Z,58.31
2023-04-02T21:17:54.204Z,58.24
2023-04-02T21:20:21.736Z,58.09
2023-04-02T21:22:49.011Z,58.14
2023-04-02T21:25:16.193Z,58.32
2023-04-02T21:27:43.516Z,59.19
2023-04-02T21:30:12.078Z,59.02
2023-04-02T21:32:40.449Z,59.41
2023-04-02T21:35:09.174Z,59.75
2023-04-02T21:37:40.155Z,60.01
2023-04-02T21:40:09.106Z,60.18
2023-04-02T21:42:37.185Z,61.44
2023-04-02T21:45:04.857Z,61.66
2023-04-02T21:47:31.947Z,61.99
2023-04-02T21:50:00.362Z,61.89
2023-04-02T21:52:27.321Z,61.95
2023-04-02T21:54:54.241Z,62.49
2023-04-02T21:57:21.171Z,62.89
2023-04-02T21:59:48.317Z,63.75
2023-04-02T22:02:16.645Z,63.55
2023-04-02T22:04:43.572Z,64.04
2023-04-02T22:07:12.022Z,63.34
2023-04-02T22:09:39.043Z,63.14
2023-04-02T22:12:08.105Z,64.13
2023-04-02T22:14:35.310Z,63.82
2023-04-02T22:17:03.493Z,63.43
2023-04-02T22:19:30.677Z,64.25
2023-04-02T22:21:57.666Z,63.81
2023-04-02T22:24:26.133Z,64.23
2023-04-02T22:26:53.208Z,63.65
2023-04-02T22:29:20.473Z,63.87
2023-04-02T22:31:47.487Z,63.72
2023-04-02T22:34:14.608Z,63.77
2023-04-02T22:36:41.628Z,64.55
2023-04-02T22:39:12.034Z,65.30
2023-04-02T22:41:40.476Z,64.62
2023-04-02T22:44:07.439Z,65.15
2023-04-02T22:46:34.795Z,65.14
2023-04-02T22:49:02.074Z,65.57
2023-04-02T22:51:29.646Z,65.42
2023-04-02T22:53:57.319Z,65.36
2023-04-02T22:56:26.732Z,64.54
2023-04-02T22:58:55.090Z,64.51
2023-04-02T23:01:25.755Z,76.90
2023-04-02T23:03:53.217Z,65.28
2023-04-02T23:06:20.421Z,64.84
2023-04-02T23:08:47.669Z,65.53
2023-04-02T23:11:16.567Z,65.24
2023-04-02T23:13:44.160Z,66.03
2023-04-02T23:16:13.572Z,65.56
2023-04-02T23:18:42.168Z,66.40
2023-04-02T23:21:09.209Z,66.72
2023-04-02T23:23:36.890Z,66.84
2023-04-02T23:26:05.714Z,67.26
2023-04-02T23:28:32.951Z,67.60
2023-04-02T23:31:01.559Z,67.81
2023-04-02T23:33:29.853Z,68.14
2023-04-02T23:35:57.383Z,68.39
2023-04-02T23:38:25.054Z,68.67
2023-04-02T23:40:52.406Z,68.85
2023-04-02T23:43:19.504Z,68.54
2023-04-02T23:45:48.166Z,68.70
2023-04-02T23:48:15.012Z,68.54
2023-04-02T23:50:44.006Z,68.93
2023-04-02T23:53:11.944Z,69.53
2023-04-02T23:55:39.043Z,69.93
2023-04-02T23:58:06.351Z,69.12
